createdAt,value
2018-11-27T00:01:06.550Z,20.30
2018-11-27T00:06:09.813Z,22.70
2018-11-27T00:11:13.078Z,22.10
2018-11-27T00:16:16.360Z,22.30
2018-11-27T00:21:19.631Z,19.37
2018-11-27T00:26:22.909Z,22.23
2018-11-27T00:31:26.181Z,19.83
2018-11-27T00:36:29.447Z,20.93
2018-11-27T00:41:32.722Z,20.97
2018-11-27T00:46:36.000Z,20.03
2018-11-27T00:51:39.291Z,20.10
2018-11-27T00:56:42.559Z,20.33
2018-11-27T01:01:45.847Z,19.07
2018-11-27T01:06:49.123Z,21.50
2018-11-27T01:11:52.420Z,19.73
2018-11-27T01:16:55.697Z,18.40
2018-11-27T01:21:58.950Z,20.77
2018-11-27T01:27:02.216Z,19.70
2018-11-27T01:32:05.610Z,17.20
2018-11-27T01:37:08.869Z,19.03
2018-11-27T01:42:12.139Z,19.60
2018-11-27T01:47:15.414Z,19.40
2018-11-27T01:52:18.699Z,20.43
2018-11-27T01:57:21.955Z,19.50
2018-11-27T02:02:25.218Z,19.03
2018-11-27T02:07:28.502Z,18.97
2018-11-27T02:12:31.758Z,17.80
2018-11-27T02:17:35.021Z,20.37
2018-11-27T02:22:38.326Z,18.37
2018-11-27T02:27:41.583Z,19.53
2018-11-27T02:32:44.871Z,20.80
2018-11-27T02:37:50.316Z,20.60
2018-11-27T02:42:53.569Z,20.37
2018-11-27T02:47:56.870Z,19.30
2018-11-27T02:53:00.074Z,20.03
2018-11-27T02:58:03.307Z,17.47
2018-11-27T03:03:06.744Z,19.07
2018-11-27T03:08:09.971Z,19.27
2018-11-27T03:13:13.211Z,19.53
2018-11-27T03:18:16.452Z,20.43
2018-11-27T03:23:19.686Z,18.37
2018-11-27T03:28:22.911Z,20.03
2018-11-27T03:33:26.131Z,20.00
2018-11-27T03:38:29.342Z,19.63
2018-11-27T03:43:32.587Z,18.50
2018-11-27T03:48:35.819Z,17.33
2018-11-27T03:53:39.022Z,19.07
2018-11-27T03:58:42.228Z,18.70
2018-11-27T04:03:45.421Z,18.20
2018-11-27T04:08:48.602Z,18.30
2018-11-27T04:13:51.776Z,18.40
2018-11-27T04:18:54.950Z,20.10
2018-11-27T04:23:58.135Z,20.97
2018-11-27T04:29:01.334Z,20.77
2018-11-27T04:34:04.566Z,17.10
2018-11-27T04:39:08.878Z,17.97
2018-11-27T04:44:12.084Z,19.03
2018-11-27T04:49:15.274Z,17.67
2018-11-27T04:54:18.463Z,15.97
2018-11-27T04:59:21.652Z,18.20
2018-11-27T05:04:24.851Z,19.77
2018-11-27T05:09:28.020Z,17.60
2018-11-27T05:14:31.230Z,17.47
2018-11-27T05:19:34.459Z,17.30
2018-11-27T05:24:37.638Z,17.10
2018-11-27T05:29:40.842Z,19.23
2018-11-27T05:34:44.018Z,16.03
2018-11-27T05:39:47.227Z,19.13
2018-11-27T05:44:50.428Z,17.83
2018-11-27T05:49:53.630Z,18.07
2018-11-27T05:54:56.838Z,19.03
2018-11-27T06:00:00.036Z,17.50
2018-11-27T06:05:03.210Z,18.47
2018-11-27T06:10:07.639Z,20.70
2018-11-27T06:15:12.810Z,19.27
2018-11-27T06:20:17.167Z,19.77
2018-11-27T06:25:24.250Z,19.50
2018-11-27T06:30:28.358Z,21.30
2018-11-27T06:35:41.601Z,19.57
2018-11-27T06:40:44.850Z,17.73
2018-11-27T06:45:48.074Z,20.53
2018-11-27T06:50:51.310Z,22.33
2018-11-27T06:55:54.538Z,20.00
2018-11-27T07:00:57.751Z,18.67
2018-11-27T07:06:01.000Z,20.13
2018-11-27T07:11:04.191Z,19.90
2018-11-27T07:16:07.366Z,16.70
2018-11-27T07:21:10.554Z,22.55
2018-11-27T07:26:13.749Z,18.60
2018-11-27T07:31:16.924Z,18.40
2018-11-27T07:36:20.098Z,17.70
2018-11-27T07:41:23.300Z,17.80
2018-11-27T07:46:26.476Z,17.10
2018-11-27T07:51:29.662Z,17.50
2018-11-27T07:56:32.839Z,17.70
2018-11-27T08:01:36.029Z,17.23
2018-11-27T08:06:39.207Z,16.60
2018-11-27T08:11:42.453Z,17.17
2018-11-27T08:16:45.666Z,17.20
2018-11-27T08:21:48.902Z,18.37
2018-11-27T08:26:52.118Z,14.77
2018-11-27T08:31:55.335Z,16.83
2018-11-27T08:36:58.558Z,18.37
2018-11-27T08:42:01.790Z,15.90
2018-11-27T08:47:05.008Z,17.33
2018-11-27T08:52:08.265Z,16.43
2018-11-27T08:57:11.499Z,17.60
2018-11-27T09:02:14.743Z,18.50
2018-11-27T09:07:17.976Z,18.20
2018-11-27T09:12:21.293Z,19.17
2018-11-27T09:17:24.483Z,17.70
2018-11-27T09:22:27.691Z,18.43
2018-11-27T09:27:30.897Z,18.27
2018-11-27T09:32:34.110Z,17.87
2018-11-27T09:37:37.323Z,17.87
2018-11-27T09:42:40.530Z,17.20
2018-11-27T09:47:44.503Z,18.53
2018-11-27T09:52:47.695Z,18.07
2018-11-27T09:57:50.905Z,16.40
2018-11-27T10:02:58.114Z,16.57
2018-11-27T10:08:01.333Z,17.03
2018-11-27T10:13:04.544Z,20.20
2018-11-27T10:18:07.735Z,15.60
2018-11-27T10:23:11.992Z,18.57
2018-11-27T10:28:15.178Z,17.93
2018-11-27T10:33:18.384Z,17.73
2018-11-27T10:38:21.631Z,17.20
2018-11-27T10:43:24.823Z,18.43
2018-11-27T10:48:28.036Z,15.23
2018-11-27T10:53:31.238Z,16.93
2018-11-27T10:58:34.467Z,18.00
2018-11-27T11:03:37.691Z,17.63
2018-11-27T11:08:40.910Z,19.43
2018-11-27T11:13:44.135Z,18.50
2018-11-27T11:18:47.322Z,19.80
2018-11-27T11:23:50.502Z,20.93
2018-11-27T11:28:53.739Z,17.30
2018-11-27T11:33:56.979Z,17.20
2018-11-27T11:39:00.203Z,19.50
2018-11-27T11:44:03.441Z,16.73
2018-11-27T11:49:06.670Z,20.77
2018-11-27T11:54:09.886Z,17.30
2018-11-27T11:59:13.084Z,13.22
2018-11-27T12:04:16.363Z,10.37
2018-11-27T12:09:19.619Z,13.03
2018-11-27T12:14:22.871Z,9.20
2018-11-27T12:19:26.090Z,15.78
2018-11-27T12:24:29.291Z,13.60
2018-11-27T12:29:32.498Z,15.20
2018-11-27T12:34:35.674Z,15.63
2018-11-27T12:39:38.865Z,17.40
2018-11-27T12:44:42.058Z,15.83
2018-11-27T12:49:45.322Z,16.17
2018-11-27T12:54:48.562Z,17.63
2018-11-27T12:59:51.796Z,16.67
2018-11-27T13:04:55.019Z,16.87
2018-11-27T13:09:58.254Z,15.73
2018-11-27T13:15:01.538Z,16.90
2018-11-27T13:20:06.703Z,15.70
2018-11-27T13:25:19.215Z,15.30
2018-11-27T13:30:32.119Z,16.07
2018-11-27T13:35:35.478Z,15.13
2018-11-27T13:40:38.739Z,14.53
2018-11-27T13:45:41.951Z,13.47
2018-11-27T13:50:45.174Z,14.10
2018-11-27T13:55:48.373Z,12.73
2018-11-27T14:00:51.596Z,14.87
2018-11-27T14:05:54.808Z,14.97
2018-11-27T14:10:57.986Z,14.87
2018-11-27T14:16:01.209Z,14.93
2018-11-27T14:21:04.750Z,13.63
2018-11-27T14:26:07.927Z,13.53
2018-11-27T14:31:11.146Z,13.80
2018-11-27T14:36:14.361Z,14.40
2018-11-27T14:41:17.594Z,12.33
2018-11-27T14:46:20.826Z,13.30
2018-11-27T14:51:24.075Z,11.93
2018-11-27T14:56:27.306Z,12.20
2018-11-27T15:01:30.530Z,11.10
2018-11-27T15:06:33.770Z,12.90
2018-11-27T15:11:37.018Z,13.23
2018-11-27T15:16:40.287Z,13.50
2018-11-27T15:21:43.604Z,13.43
2018-11-27T15:26:46.842Z,12.10
2018-11-27T15:31:50.091Z,11.60
2018-11-27T15:36:53.391Z,11.73
2018-11-27T15:41:56.682Z,12.80
2018-11-27T15:46:59.992Z,11.90
2018-11-27T15:52:03.262Z,12.83
2018-11-27T15:57:06.522Z,11.30
2018-11-27T16:02:09.786Z,14.53
2018-11-27T16:07:13.042Z,14.67
2018-11-27T16:12:16.290Z,13.10
2018-11-27T16:17:19.534Z,12.93
2018-11-27T16:22:22.766Z,13.43
2018-11-27T16:27:26.011Z,12.83
2018-11-27T16:32:29.253Z,12.57
2018-11-27T16:37:32.537Z,11.10
2018-11-27T16:42:35.795Z,11.87
2018-11-27T16:47:39.033Z,13.10
2018-11-27T16:52:42.303Z,12.50
2018-11-27T16:57:46.300Z,12.93
2018-11-27T17:02:50.569Z,13.60
2018-11-27T17:07:53.750Z,12.70
2018-11-27T17:12:57.738Z,12.20
2018-11-27T17:18:00.955Z,12.47
2018-11-27T17:23:07.984Z,13.13
2018-11-27T17:28:14.838Z,11.53
2018-11-27T17:33:36.886Z,12.70
2018-11-27T17:38:40.060Z,12.67
2018-11-27T17:43:43.404Z,13.07
2018-11-27T17:48:46.706Z,13.67
2018-11-27T17:53:49.932Z,13.30
2018-11-27T17:58:53.169Z,13.00
2018-11-27T18:03:56.408Z,12.50
2018-11-27T18:08:59.665Z,13.20
2018-11-27T18:14:02.927Z,13.90
2018-11-27T18:19:06.716Z,12.00
2018-11-27T18:24:09.958Z,13.60
2018-11-27T18:29:13.170Z,14.10
2018-11-27T18:34:16.366Z,12.27
2018-11-27T18:39:19.702Z,12.87
2018-11-27T18:44:22.987Z,13.10
2018-11-27T18:49:26.207Z,13.23
2018-11-27T18:54:29.459Z,13.27
2018-11-27T18:59:32.666Z,14.00
2018-11-27T19:04:35.895Z,12.90
2018-11-27T19:09:39.073Z,12.20
2018-11-27T19:14:42.262Z,15.07
2018-11-27T19:19:45.466Z,13.70
2018-11-27T19:24:48.678Z,12.27
2018-11-27T19:29:51.917Z,13.07
2018-11-27T19:34:55.134Z,13.10
2018-11-27T19:39:58.382Z,13.83
2018-11-27T19:45:01.578Z,15.10
2018-11-27T19:50:07.170Z,11.73
2018-11-27T19:55:13.529Z,13.30
2018-11-27T20:00:17.974Z,15.17
2018-11-27T20:05:23.634Z,15.57
2018-11-27T20:10:26.838Z,14.57
2018-11-27T20:15:30.146Z,15.70
2018-11-27T20:20:33.415Z,15.40
2018-11-27T20:25:36.682Z,13.03
2018-11-27T20:30:41.054Z,16.00
2018-11-27T20:35:45.589Z,14.40
2018-11-27T20:40:48.449Z,16.00
2018-11-27T20:45:50.959Z,17.07
2018-11-27T20:50:55.085Z,14.90
2018-11-27T20:55:58.503Z,16.17
2018-11-27T21:01:01.891Z,15.40
2018-11-27T21:06:05.053Z,16.00
2018-11-27T21:11:08.549Z,16.23
2018-11-27T21:16:11.514Z,16.53
2018-11-27T21:21:14.754Z,16.40
2018-11-27T21:26:18.060Z,15.17
2018-11-27T21:31:24.263Z,15.43
2018-11-27T21:36:24.598Z,15.03
2018-11-27T21:41:27.875Z,15.33
2018-11-27T21:46:31.165Z,17.57
2018-11-27T21:51:34.480Z,16.07
2018-11-27T21:56:37.765Z,17.73
2018-11-27T22:01:41.034Z,15.60
2018-11-27T22:06:44.278Z,16.10
2018-11-27T22:11:47.551Z,14.17
2018-11-27T22:16:50.798Z,15.00
2018-11-27T22:21:54.054Z,15.70
2018-11-27T22:26:57.275Z,16.33
2018-11-27T22:32:00.490Z,14.90
2018-11-27T22:37:03.683Z,15.00
2018-11-27T22:42:06.907Z,17.70
2018-11-27T22:47:10.138Z,15.40
2018-11-27T22:52:13.326Z,17.30
2018-11-27T22:57:16.528Z,17.73
2018-11-27T23:02:19.730Z,16.73
2018-11-27T23:07:28.315Z,18.53
2018-11-27T23:12:31.506Z,16.13
2018-11-27T23:17:34.731Z,18.60
2018-11-27T23:22:37.974Z,16.70
2018-11-27T23:27:41.190Z,16.57
2018-11-27T23:32:44.444Z,14.70
2018-11-27T23:37:47.635Z,16.10
2018-11-27T23:42:50.916Z,16.57
2018-11-27T23:47:54.202Z,15.63
2018-11-27T23:52:57.503Z,17.07
2018-11-27T23:58:00.850Z,16.13
